createdAt,value
2024-01-04T00:00:40.808Z,2.61
2024-01-04T00:06:03.930Z,5.86
2024-01-04T00:11:07.826Z,3.96
2024-01-04T00:16:12.212Z,1.59
2024-01-04T00:21:15.489Z,2.16
2024-01-04T00:26:18.318Z,5.55
2024-01-04T00:31:21.165Z,3.93
2024-01-04T00:36:23.902Z,1.54
2024-01-04T00:41:26.875Z,0.71
2024-01-04T00:46:29.575Z,4.35
2024-01-04T00:51:32.297Z,5.29
2024-01-04T00:56:37.076Z,2.52
2024-01-04T01:01:40.341Z,1.97
2024-01-04T01:06:43.229Z,5.44
2024-01-04T01:11:46.388Z,5.55
2024-01-04T01:16:49.060Z,2.62
2024-01-04T01:21:51.841Z,0.84
2024-01-04T01:26:54.630Z,3.12
2024-01-04T01:31:57.484Z,5.58
2024-01-04T01:37:00.576Z,3.06
2024-01-04T01:42:03.547Z,1.84
2024-01-04T01:47:06.573Z,5.09
2024-01-04T01:52:09.345Z,4.88
2024-01-04T01:57:12.824Z,2.15
2024-01-04T02:02:16.958Z,2.19
2024-01-04T02:07:20.079Z,5.49
2024-01-04T02:12:22.741Z,3.39
2024-01-04T02:17:27.190Z,1.19
2024-01-04T02:22:31.443Z,2.25
2024-01-04T02:27:34.199Z,5.76
2024-01-04T02:32:37.084Z,3.88
2024-01-04T02:37:39.978Z,2.20
2024-01-04T02:42:42.695Z,5.16
2024-01-04T02:47:45.552Z,3.99
2024-01-04T02:52:48.431Z,1.66
2024-01-04T02:57:51.947Z,3.53
2024-01-04T03:02:54.668Z,5.06
2024-01-04T03:07:57.433Z,2.44
2024-01-04T03:13:00.143Z,2.98
2024-01-04T03:18:03.091Z,5.65
2024-01-04T03:23:05.912Z,3.23
2024-01-04T03:28:08.672Z,1.81
2024-01-04T03:33:11.522Z,5.10
2024-01-04T03:38:14.912Z,5.88
2024-01-04T03:43:17.701Z,2.90
2024-01-04T03:48:20.570Z,1.19
2024-01-04T03:53:23.418Z,3.65
2024-01-04T03:58:27.320Z,6.10
2024-01-04T04:03:30.691Z,3.79
2024-01-04T04:08:33.572Z,1.72
2024-01-04T04:13:36.409Z,2.48
2024-01-04T04:18:39.369Z,6.31
2024-01-04T04:23:43.391Z,5.87
2024-01-04T04:28:46.190Z,3.10
2024-01-04T04:33:50.143Z,2.40
2024-01-04T04:38:53.305Z,6.04
2024-01-04T04:43:56.156Z,5.72
2024-01-04T04:48:59.893Z,3.05
2024-01-04T04:54:04.568Z,3.64
2024-01-04T04:59:07.466Z,6.80
2024-01-04T05:04:10.602Z,4.90
2024-01-04T05:09:13.497Z,2.87
2024-01-04T05:14:16.346Z,3.57
2024-01-04T05:19:19.167Z,6.93
2024-01-04T05:24:22.082Z,5.39
2024-01-04T05:29:27.074Z,3.06
2024-01-04T05:34:33.503Z,1.86
2024-01-04T05:39:36.829Z,4.74
2024-01-04T05:44:39.610Z,7.34
2024-01-04T05:49:42.615Z,5.33
2024-01-04T05:54:45.439Z,3.09
2024-01-04T05:59:48.209Z,3.64
2024-01-04T06:04:50.938Z,6.96
2024-01-04T06:09:53.877Z,5.49
2024-01-04T06:14:57.161Z,3.38
2024-01-04T06:19:59.976Z,6.35
2024-01-04T06:25:02.745Z,6.87
2024-01-04T06:30:07.496Z,4.10
2024-01-04T06:35:10.377Z,2.58
2024-01-04T06:40:13.218Z,5.43
2024-01-04T06:45:16.134Z,6.90
2024-01-04T06:50:19.744Z,4.28
2024-01-04T06:55:22.891Z,2.63
2024-01-04T07:00:26.618Z,5.39
2024-01-04T07:05:29.610Z,7.56
2024-01-04T07:10:32.540Z,5.00
2024-01-04T07:15:35.372Z,2.99
2024-01-04T07:20:42.541Z,3.58
2024-01-04T07:25:45.501Z,7.40
2024-01-04T07:30:48.382Z,7.49
2024-01-04T07:35:51.219Z,4.69
2024-01-04T07:40:53.987Z,3.03
2024-01-04T07:45:56.784Z,3.89
2024-01-04T07:51:00.778Z,7.60
2024-01-04T07:56:04.220Z,7.05
2024-01-04T08:01:08.003Z,4.51
2024-01-04T08:06:10.886Z,4.36
2024-01-04T08:11:13.784Z,7.80
2024-01-04T08:16:16.584Z,6.79
2024-01-04T08:21:20.367Z,4.37
2024-01-04T08:26:23.247Z,4.07
2024-01-04T08:31:27.120Z,7.72
2024-01-04T08:36:30.150Z,6.29
2024-01-04T08:41:33.050Z,4.23
2024-01-04T08:46:39.282Z,6.97
2024-01-04T08:51:42.668Z,7.78
2024-01-04T08:56:45.434Z,5.20
2024-01-04T09:01:48.268Z,3.61
2024-01-04T09:06:51.027Z,4.43
2024-01-04T09:11:54.543Z,7.88
2024-01-04T09:16:57.574Z,6.05
2024-01-04T09:22:00.377Z,4.50
2024-01-04T09:27:04.399Z,7.67
2024-01-04T09:32:07.607Z,8.00
2024-01-04T09:37:10.590Z,5.33
2024-01-04T09:42:16.424Z,4.69
2024-01-04T09:47:23.802Z,8.07
2024-01-04T09:52:27.269Z,7.10
2024-01-04T09:57:30.105Z,4.63
2024-01-04T10:02:33.823Z,5.11
2024-01-04T10:07:44.346Z,8.48
2024-01-04T10:12:48.756Z,6.55
2024-01-04T10:17:53.583Z,4.37
2024-01-04T10:22:59.867Z,5.70
2024-01-04T10:28:03.273Z,8.17
2024-01-04T10:33:06.718Z,5.67
2024-01-04T10:38:10.050Z,3.99
2024-01-04T10:43:20.463Z,5.65
2024-01-04T10:48:23.373Z,8.52
2024-01-04T10:53:29.242Z,6.31
2024-01-04T10:58:34.586Z,4.55
2024-01-04T11:03:38.626Z,6.91
2024-01-04T11:08:44.217Z,9.04
2024-01-04T11:13:47.380Z,6.63
2024-01-04T11:19:09.442Z,5.01
2024-01-04T11:24:50.668Z,6.72
2024-01-04T11:29:54.226Z,9.32
2024-01-04T11:34:57.688Z,6.87
2024-01-04T11:40:08.474Z,4.97
2024-01-04T11:45:15.825Z,3.85
2024-01-04T11:50:21.133Z,5.21
2024-01-04T11:55:26.790Z,8.65
2024-01-04T12:00:34.465Z,8.93
2024-01-04T12:05:37.445Z,6.19
2024-01-04T12:10:41.400Z,6.57
2024-01-04T12:15:44.139Z,9.14
2024-01-04T12:20:47.061Z,6.93
2024-01-04T12:25:50.115Z,5.67
2024-01-04T12:30:53.144Z,8.60
2024-01-04T12:36:01.364Z,8.31
2024-01-04T12:41:04.550Z,5.69
2024-01-04T12:46:08.747Z,6.54
2024-01-04T12:51:18.601Z,9.15
2024-01-04T12:56:21.964Z,7.18
2024-01-04T13:01:24.785Z,5.80
2024-01-04T13:06:29.464Z,8.44
2024-01-04T13:11:32.559Z,7.05
2024-01-04T13:16:35.327Z,6.57
2024-01-04T13:21:38.438Z,8.54
2024-01-04T13:26:44.693Z,6.25
2024-01-04T13:31:48.512Z,6.07
2024-01-04T13:36:51.306Z,8.33
2024-01-04T13:41:55.689Z,6.21
2024-01-04T13:46:58.758Z,4.26
2024-01-04T13:52:04.490Z,4.90
2024-01-04T13:57:09.156Z,8.47
2024-01-04T14:02:12.196Z,7.36
2024-01-04T14:07:15.011Z,4.97
2024-01-04T14:12:17.826Z,6.04
2024-01-04T14:17:20.633Z,8.44
2024-01-04T14:22:23.430Z,5.88
2024-01-04T14:27:27.532Z,4.19
2024-01-04T14:32:33.577Z,6.73
2024-01-04T14:37:40.176Z,8.44
2024-01-04T14:42:43.679Z,5.99
2024-01-04T14:47:47.897Z,5.19
2024-01-04T14:52:50.820Z,7.87
2024-01-04T14:57:56.831Z,5.66
2024-01-04T15:02:59.707Z,6.31
2024-01-04T15:08:03.957Z,7.33
2024-01-04T15:13:07.105Z,4.46
2024-01-04T15:18:10.005Z,5.40
2024-01-04T15:23:13.792Z,6.31
2024-01-04T15:28:16.623Z,3.63
2024-01-04T15:33:19.530Z,4.22
2024-01-04T15:38:22.504Z,6.61
2024-01-04T15:43:25.308Z,5.15
2024-01-04T15:48:29.087Z,3.30
2024-01-04T15:53:31.977Z,5.84
2024-01-04T15:58:34.815Z,3.83
2024-01-04T16:03:38.703Z,3.80
2024-01-04T16:08:41.587Z,5.63
2024-01-04T16:13:45.953Z,2.89
2024-01-04T16:18:48.809Z,3.40
2024-01-04T16:23:51.798Z,5.03
2024-01-04T16:28:55.093Z,2.40
2024-01-04T16:33:58.140Z,2.07
2024-01-04T16:39:01.501Z,4.28
2024-01-04T16:44:04.569Z,1.43
2024-01-04T16:49:07.554Z,1.91
2024-01-04T16:54:11.458Z,3.82
2024-01-04T16:59:14.334Z,1.30
2024-01-04T17:04:17.468Z,2.66
2024-01-04T17:09:22.380Z,4.10
2024-01-04T17:14:25.378Z,1.31
2024-01-04T17:19:28.731Z,0.96
2024-01-04T17:24:32.240Z,3.63
2024-01-04T17:29:35.074Z,1.15
2024-01-04T17:34:37.908Z,1.22
2024-01-04T17:39:40.801Z,1.65
2024-01-04T17:44:43.883Z,-0.15
2024-01-04T17:49:48.631Z,2.81
2024-01-04T17:54:52.842Z,0.53
2024-01-04T17:59:55.918Z,0.52
2024-01-04T18:04:58.711Z,2.81
2024-01-04T18:10:01.739Z,0.03
2024-01-04T18:15:05.484Z,1.54
2024-01-04T18:20:09.273Z,1.87
2024-01-04T18:25:12.092Z,-0.31
2024-01-04T18:30:15.139Z,2.34
2024-01-04T18:35:18.192Z,-0.30
2024-01-04T18:40:21.158Z,-0.03
2024-01-04T18:45:23.895Z,0.91
2024-01-04T18:50:26.770Z,-1.28
2024-01-04T18:55:29.842Z,0.97
2024-01-04T19:00:32.853Z,-0.82
2024-01-04T19:05:36.135Z,-1.14
2024-01-04T19:10:39.028Z,0.80
2024-01-04T19:15:49.541Z,-1.82
2024-01-04T19:21:00.146Z,0.57
2024-01-04T19:26:03.755Z,0.29
2024-01-04T19:31:07.469Z,-2.06
2024-01-04T19:36:10.325Z,0.27
2024-01-04T19:41:13.373Z,1.41
2024-01-04T19:46:16.347Z,-1.41
2024-01-04T19:51:20.111Z,-1.43
2024-01-04T19:56:25.549Z,0.50
2024-01-04T20:01:28.327Z,-1.95
2024-01-04T20:06:31.809Z,0.01
2024-01-04T20:11:35.560Z,0.70
2024-01-04T20:16:40.601Z,-1.81
2024-01-04T20:21:44.885Z,-1.07
2024-01-04T20:26:47.698Z,1.59
2024-01-04T20:31:50.472Z,-1.04
2024-01-04T20:36:53.470Z,-1.75
2024-01-04T20:41:56.175Z,1.35
2024-01-04T20:47:02.016Z,-0.81
2024-01-04T20:52:05.093Z,-1.75
2024-01-04T20:57:07.868Z,1.57
2024-01-04T21:02:10.829Z,-0.77
2024-01-04T21:07:13.585Z,-2.35
2024-01-04T21:12:16.630Z,1.15
2024-01-04T21:17:19.591Z,-0.01
2024-01-04T21:22:22.271Z,-1.62
2024-01-04T21:27:27.313Z,1.78
2024-01-04T21:32:30.198Z,2.41
2024-01-04T21:37:32.948Z,-0.66
2024-01-04T21:42:35.719Z,0.48
2024-01-04T21:47:38.501Z,1.73
2024-01-04T21:52:41.255Z,-0.71
2024-01-04T21:57:43.973Z,2.17
2024-01-04T22:02:46.756Z,0.98
2024-01-04T22:07:49.781Z,-0.40
2024-01-04T22:12:53.157Z,2.49
2024-01-04T22:17:55.973Z,0.41
2024-01-04T22:22:58.784Z,-0.30
2024-01-04T22:28:01.627Z,3.26
2024-01-04T22:33:04.962Z,2.10
2024-01-04T22:38:07.989Z,-0.53
2024-01-04T22:43:10.692Z,-0.73
2024-01-04T22:48:13.494Z,3.03
2024-01-04T22:53:16.533Z,1.30
2024-01-04T22:58:19.336Z,0.97
2024-01-04T23:03:22.414Z,2.57
2024-01-04T23:08:25.383Z,0.17
2024-01-04T23:13:28.072Z,2.81
2024-01-04T23:18:31.048Z,1.71
2024-01-04T23:23:34.108Z,1.01
2024-01-04T23:28:40.444Z,2.67
2024-01-04T23:33:43.801Z,1.00
2024-01-04T23:38:46.835Z,3.41
2024-01-04T23:43:49.544Z,1.10
2024-01-04T23:48:52.603Z,2.13
2024-01-04T23:53:55.690Z,2.71
2024-01-04T23:58:58.565Z,1.00
